Time;durP1;ratioP1;P1;durP2;ratioP2;P2;SDS_P1;SDS_P2;PMS_P1;PMS_P2;Temp;Humidity;BMP_temperature;BMP_pressure;BME280_temperature;BME280_humidity;BME280_pressure;Samples;Min_cycle;Max_cycle;Signal;HPM_P1;HPM_P2
2023/06/04 00:02:06;;;;;;;;;;;;;;;17.52;100.00;99840.41;5033031;28;856;-55
2023/06/04 00:04:32;;;;;;;;;;;;;;;17.50;100.00;99840.84;5033059;28;898;-56
2023/06/04 00:06:59;;;;;;;;;;;;;;;17.47;100.00;99835.34;5032934;28;831;-56
2023/06/04 00:09:25;;;;;;;;;;;;;;;17.45;100.00;99835.78;5032900;28;1007;-56
2023/06/04 00:11:52;;;;;;;;;;;;;;;17.42;100.00;99839.50;5032555;28;1432;-55
2023/06/04 00:14:18;;;;;;;;;;;;;;;17.42;100.00;99839.50;5032443;28;827;-54
2023/06/04 00:16:45;;;;;;;;;;;;;;;17.44;100.00;99844.66;5032654;28;875;-56
2023/06/04 00:19:11;;;;;;;;;;;;;;;17.43;100.00;99849.47;5032758;28;1906;-56
2023/06/04 00:21:38;;;;;;;;;;;;;;;17.43;100.00;99857.03;5032667;28;851;-55
2023/06/04 00:24:04;;;;;;;;;;;;;;;17.43;100.00;99851.44;5032620;28;844;-54
2023/06/04 00:26:31;;;;;;;;;;;;;;;17.42;100.00;99853.47;5032610;28;861;-56
2023/06/04 00:28:58;;;;;;;;;;;;;;;17.42;100.00;99842.28;5032504;28;922;-56
2023/06/04 00:31:25;;;;;;;;;;;;;;;17.43;100.00;99848.66;5032566;28;816;-56
2023/06/04 00:33:52;;;;;;;;;;;;;;;17.43;100.00;99848.66;5032440;28;899;-56
2023/06/04 00:36:19;;;;;;;;;;;;;;;17.44;100.00;99851.00;5032641;28;804;-56
2023/06/04 00:38:46;;;;;;;;;;;;;;;17.46;100.00;99853.38;5032256;28;1957;-54
2023/06/04 00:41:13;;;;;;;;;;;;;;;17.45;100.00;99846.19;5032357;28;919;-56
2023/06/04 00:43:39;;;;;;;;;;;;;;;17.44;100.00;99841.84;5032207;28;852;-55
2023/06/04 00:46:06;;;;;;;;;;;;;;;17.42;100.00;99841.53;5032106;28;856;-56
2023/06/04 00:48:33;;;;;;;;;;;;;;;17.40;100.00;99838.41;5032340;28;851;-56
2023/06/04 00:51:00;;;;;;;;;;;;;;;17.40;100.00;99835.59;5032171;28;851;-56
2023/06/04 00:53:28;;;;;;;;;;;;;;;17.39;100.00;99842.41;5032184;28;843;-56
2023/06/04 00:55:54;;;;;;;;;;;;;;;17.38;100.00;99833.25;5031982;28;860;-56
2023/06/04 00:58:21;;;;;;;;;;;;;;;17.39;100.00;99848.00;5031992;28;1957;-56
2023/06/04 01:00:47;;;;;;;;;;;;;;;17.38;100.00;99846.44;5032151;28;820;-56
2023/06/04 01:03:18;;;;;;;;;;;;;;;17.37;100.00;99850.44;5031913;28;942;-55
2023/06/04 01:05:45;;;;;;;;;;;;;;;17.34;100.00;99857.72;5031919;28;840;-56
2023/06/04 01:08:12;;;;;;;;;;;;;;;17.33;100.00;99853.38;5031892;28;890;-57
2023/06/04 01:10:50;;;;;;;;;;;;;;;17.30;100.00;99857.84;5031885;28;1407;-56
2023/06/04 01:13:16;;;;;;;;;;;;;;;17.33;100.00;99859.75;5032020;28;848;-56
2023/06/04 01:15:43;;;;;;;;;;;;;;;17.32;100.00;99860.94;5032107;28;930;-56
2023/06/04 01:18:11;;;;;;;;;;;;;;;17.30;100.00;99869.03;5032198;28;1985;-57
2023/06/04 01:20:40;;;;;;;;;;;;;;;17.28;100.00;99868.69;5031859;28;871;-56
2023/06/04 01:23:27;;;;;;;;;;;;;;;17.28;100.00;99870.69;5031572;28;876;-56
2023/06/04 01:25:54;;;;;;;;;;;;;;;17.28;100.00;99877.06;5031026;28;839;-56
2023/06/04 01:28:21;;;;;;;;;;;;;;;17.25;100.00;99874.38;5031542;28;800;-54
2023/06/04 01:30:48;;;;;;;;;;;;;;;17.24;100.00;99883.97;5031840;28;804;-56
2023/06/04 01:33:16;;;;;;;;;;;;;;;17.21;100.00;99882.09;5031489;28;797;-56
2023/06/04 01:35:43;;;;;;;;;;;;;;;17.18;100.00;99878.19;5031539;28;847;-56
2023/06/04 01:38:10;;;;;;;;;;;;;;;17.14;100.00;99881.06;5031452;28;1890;-57
2023/06/04 01:40:37;;;;;;;;;;;;;;;17.09;100.00;99878.84;5031490;28;859;-56
2023/06/04 01:43:04;;;;;;;;;;;;;;;17.08;100.00;99873.69;5031376;28;828;-57
2023/06/04 01:45:30;;;;;;;;;;;;;;;17.06;100.00;99879.72;5031337;28;792;-56
2023/06/04 01:47:57;;;;;;;;;;;;;;;17.02;100.00;99876.25;5031376;28;890;-57
2023/06/04 01:50:24;;;;;;;;;;;;;;;16.99;100.00;99860.41;5031367;28;812;-55
2023/06/04 01:52:51;;;;;;;;;;;;;;;16.98;100.00;99863.63;5031393;28;801;-56
2023/06/04 01:55:18;;;;;;;;;;;;;;;17.01;100.00;99862.75;5031457;28;800;-56
2023/06/04 01:57:46;;;;;;;;;;;;;;;17.04;100.00;99876.59;5031263;28;1894;-56
2023/06/04 02:00:14;;;;;;;;;;;;;;;17.07;100.00;99880.50;5031265;28;843;-56
2023/06/04 02:02:42;;;;;;;;;;;;;;;16.98;100.00;99878.38;5031194;28;851;-56
2023/06/04 02:05:08;;;;;;;;;;;;;;;16.88;100.00;99876.69;5031207;28;825;-56
2023/06/04 02:07:39;;;;;;;;;;;;;;;16.84;100.00;99884.38;5031159;28;903;-56
2023/06/04 02:10:09;;;;;;;;;;;;;;;16.83;100.00;99885.59;5031134;28;911;-57
2023/06/04 02:12:36;;;;;;;;;;;;;;;16.86;100.00;99893.09;5030914;28;1141;-54
2023/06/04 02:15:03;;;;;;;;;;;;;;;16.84;100.00;99887.19;5031092;28;894;-56
2023/06/04 02:17:32;;;;;;;;;;;;;;;16.78;100.00;99900.88;5031042;28;1914;-56
2023/06/04 02:19:59;;;;;;;;;;;;;;;16.74;100.00;99906.53;5031038;28;849;-56
2023/06/04 02:22:25;;;;;;;;;;;;;;;16.72;100.00;99899.84;5031130;28;821;-56
2023/06/04 02:24:52;;;;;;;;;;;;;;;16.74;100.00;99905.75;5029785;28;939;-56
2023/06/04 02:27:21;;;;;;;;;;;;;;;16.78;100.00;99912.03;5030922;28;1110;-56
2023/06/04 02:29:49;;;;;;;;;;;;;;;16.82;100.00;99912.75;5031297;28;851;-56
2023/06/04 02:32:16;;;;;;;;;;;;;;;16.89;100.00;99918.09;5030910;28;820;-55
2023/06/04 02:34:44;;;;;;;;;;;;;;;16.97;100.00;99918.69;5030957;28;879;-56
2023/06/04 02:37:11;;;;;;;;;;;;;;;17.08;100.00;99930.31;5032792;28;991;-56
2023/06/04 02:39:37;;;;;;;;;;;;;;;17.10;100.00;99927.09;5034542;28;1902;-56
2023/06/04 02:42:04;;;;;;;;;;;;;;;17.08;100.00;99932.34;5034861;28;868;-56
2023/06/04 02:44:31;;;;;;;;;;;;;;;17.10;100.00;99932.69;5034429;28;824;-56
2023/06/04 02:46:57;;;;;;;;;;;;;;;17.16;100.00;99935.72;5034450;28;894;-56
2023/06/04 02:49:24;;;;;;;;;;;;;;;17.30;100.00;99929.69;5034532;28;804;-56
2023/06/04 02:51:51;;;;;;;;;;;;;;;17.41;100.00;99932.13;5034381;28;962;-56
2023/06/04 02:54:19;;;;;;;;;;;;;;;17.46;100.00;99931.59;5034503;28;914;-57
2023/06/04 02:56:45;;;;;;;;;;;;;;;17.53;100.00;99939.75;5034339;28;937;-57
2023/06/04 02:59:11;;;;;;;;;;;;;;;17.61;100.00;99937.53;5034160;28;1886;-56
2023/06/04 03:01:38;;;;;;;;;;;;;;;17.63;100.00;99938.63;5033006;28;911;-56
2023/06/04 03:04:09;;;;;;;;;;;;;;;17.58;100.00;99950.38;5034193;28;835;-56
2023/06/04 03:06:39;;;;;;;;;;;;;;;17.47;100.00;99961.88;5034118;28;839;-56
2023/06/04 03:09:06;;;;;;;;;;;;;;;17.20;100.00;99955.91;5034342;28;992;-56
2023/06/04 03:11:34;;;;;;;;;;;;;;;16.86;100.00;99949.72;5033952;28;1399;-56
2023/06/04 03:14:00;;;;;;;;;;;;;;;16.68;100.00;99946.59;5034410;28;886;-55
2023/06/04 03:16:27;;;;;;;;;;;;;;;16.53;100.00;99951.78;5034341;28;840;-56
2023/06/04 03:18:55;;;;;;;;;;;;;;;16.51;100.00;99943.88;5034016;28;1942;-56
2023/06/04 03:21:22;;;;;;;;;;;;;;;16.59;100.00;99961.19;5034028;28;887;-56
2023/06/04 03:23:49;;;;;;;;;;;;;;;16.61;100.00;99963.53;5034144;28;1093;-55
2023/06/04 03:26:15;;;;;;;;;;;;;;;16.58;100.00;99959.63;5033938;28;867;-56
2023/06/04 03:28:42;;;;;;;;;;;;;;;16.56;100.00;99964.06;5033897;28;796;-56
2023/06/04 03:31:09;;;;;;;;;;;;;;;16.53;100.00;99963.72;5033746;28;867;-56
2023/06/04 03:33:36;;;;;;;;;;;;;;;16.52;100.00;99964.94;5032797;28;851;-56
2023/06/04 03:36:03;;;;;;;;;;;;;;;16.52;100.00;99972.53;5033975;28;851;-56
2023/06/04 03:38:30;;;;;;;;;;;;;;;16.51;100.00;99963.41;5034128;28;1894;-56
2023/06/04 03:40:57;;;;;;;;;;;;;;;16.50;100.00;99958.25;5033833;28;828;-56
2023/06/04 03:43:24;;;;;;;;;;;;;;;16.57;100.00;99966.41;5033462;28;1384;-56
2023/06/04 03:45:50;;;;;;;;;;;;;;;16.68;100.00;99963.34;5033725;28;586;-57
2023/06/04 03:48:17;;;;;;;;;;;;;;;16.82;100.00;99968.56;5032511;28;845;-57
2023/06/04 03:50:45;;;;;;;;;;;;;;;17.00;100.00;99967.28;5033355;28;848;-56
2023/06/04 03:53:12;;;;;;;;;;;;;;;17.18;100.00;99967.56;5033654;28;887;-56
2023/06/04 03:55:39;;;;;;;;;;;;;;;17.33;100.00;99970.69;5033573;28;834;-56
2023/06/04 03:58:09;;;;;;;;;;;;;;;17.46;100.00;99970.72;5031869;28;1953;-56
2023/06/04 04:00:35;;;;;;;;;;;;;;;17.55;100.00;99979.22;5033218;28;859;-56
2023/06/04 04:03:03;;;;;;;;;;;;;;;17.58;100.00;99978.34;5033131;28;807;-56
2023/06/04 04:05:30;;;;;;;;;;;;;;;17.65;100.00;99978.09;5033100;28;836;-56
2023/06/04 04:07:58;;;;;;;;;;;;;;;17.79;100.00;99976.09;5033004;28;879;-56
2023/06/04 04:10:24;;;;;;;;;;;;;;;17.88;100.00;99973.41;5032955;28;1305;-57
2023/06/04 04:12:54;;;;;;;;;;;;;;;17.95;100.00;99981.59;5032809;28;852;-55
2023/06/04 04:15:21;;;;;;;;;;;;;;;18.06;100.00;99975.66;5032823;28;918;-55
2023/06/04 04:17:48;;;;;;;;;;;;;;;18.21;100.00;99982.31;5032730;28;1914;-56
2023/06/04 04:20:16;;;;;;;;;;;;;;;18.46;100.00;99986.31;5032669;28;888;-56
2023/06/04 04:22:42;;;;;;;;;;;;;;;18.57;100.00;99992.31;5032710;28;934;-55
2023/06/04 04:25:09;;;;;;;;;;;;;;;18.70;100.00;99995.06;5032640;28;1033;-55
2023/06/04 04:27:40;;;;;;;;;;;;;;;18.86;100.00;100003.31;5032591;28;836;-56
2023/06/04 04:30:07;;;;;;;;;;;;;;;19.00;100.00;99992.81;5033105;28;831;-56
2023/06/04 04:32:34;;;;;;;;;;;;;;;19.19;100.00;99997.31;5032546;28;911;-55
2023/06/04 04:35:01;;;;;;;;;;;;;;;19.26;100.00;99993.47;5032473;28;902;-55
2023/06/04 04:37:27;;;;;;;;;;;;;;;19.30;100.00;99991.31;5032392;28;812;-55
2023/06/04 04:39:54;;;;;;;;;;;;;;;19.20;100.00;100000.88;5032257;28;1887;-54
2023/06/04 04:42:21;;;;;;;;;;;;;;;19.15;100.00;99996.66;5032269;28;815;-55
2023/06/04 04:44:50;;;;;;;;;;;;;;;19.24;100.00;100002.31;5032337;28;903;-54
2023/06/04 04:47:16;;;;;;;;;;;;;;;19.33;100.00;100005.19;5030922;28;2354;-53
2023/06/04 04:49:43;;;;;;;;;;;;;;;19.37;100.00;100005.84;5032369;28;872;-54
2023/06/04 04:55:12;;;;;;;;;;;;;;;19.65;100.00;100016.41;5032142;28;666;-56
2023/06/04 04:57:39;;;;;;;;;;;;;;;19.81;100.00;100021.81;5032030;28;1886;-54
2023/06/04 05:00:09;;;;;;;;;;;;;;;19.77;100.00;100019.13;5032277;28;910;-53
2023/06/04 05:02:36;;;;;;;;;;;;;;;19.72;100.00;100024.56;5031936;28;820;-54
2023/06/04 05:05:03;;;;;;;;;;;;;;;19.71;100.00;100023.00;5032085;28;840;-55
2023/06/04 05:07:30;;;;;;;;;;;;;;;19.71;100.00;100028.59;5031876;28;879;-55
2023/06/04 05:09:58;;;;;;;;;;;;;;;19.68;100.00;100030.28;5032025;28;910;-55
2023/06/04 05:12:30;;;;;;;;;;;;;;;19.81;100.00;100032.25;5031337;28;1395;-53
2023/06/04 05:14:57;;;;;;;;;;;;;;;19.90;100.00;100038.66;5031751;28;796;-54
2023/06/04 05:17:29;;;;;;;;;;;;;;;19.91;100.00;100037.44;5031768;28;918;-56
2023/06/04 05:20:11;;;;;;;;;;;;;;;19.92;100.00;100038.22;5031630;28;1914;-54
2023/06/04 05:22:38;;;;;;;;;;;;;;;19.89;100.00;100037.13;5031607;28;919;-54
2023/06/04 05:25:06;;;;;;;;;;;;;;;19.96;100.00;100039.63;5031687;28;867;-56
2023/06/04 05:27:32;;;;;;;;;;;;;;;20.23;100.00;100040.16;5031590;28;874;-54
2023/06/04 05:30:01;;;;;;;;;;;;;;;20.45;100.00;100046.47;5031627;28;887;-55
2023/06/04 05:32:28;;;;;;;;;;;;;;;20.71;100.00;100046.22;5031470;28;880;-53
2023/06/04 05:34:58;;;;;;;;;;;;;;;20.66;100.00;100055.28;5031581;28;859;-55
2023/06/04 05:37:26;;;;;;;;;;;;;;;21.03;100.00;100050.44;5031450;28;856;-55
2023/06/04 05:39:53;;;;;;;;;;;;;;;21.04;100.00;100051.22;5031352;28;1953;-55
2023/06/04 05:42:20;;;;;;;;;;;;;;;21.05;100.00;100053.56;5031376;28;890;-54
2023/06/04 05:44:48;;;;;;;;;;;;;;;21.45;100.00;100058.25;5031404;28;852;-53
2023/06/04 05:47:16;;;;;;;;;;;;;;;21.74;100.00;100057.72;5030073;28;1292;-55
2023/06/04 05:52:46;;;;;;;;;;;;;;;21.86;100.00;100058.75;5031452;28;643;-53
2023/06/04 05:55:14;;;;;;;;;;;;;;;22.13;100.00;100057.84;5031335;28;863;-52
2023/06/04 05:57:40;;;;;;;;;;;;;;;22.13;100.00;100059.91;5031276;28;1890;-54
2023/06/04 06:00:10;;;;;;;;;;;;;;;21.95;100.00;100061.50;5030013;28;738;-53
2023/06/04 06:02:38;;;;;;;;;;;;;;;21.94;100.00;100062.00;5031142;28;951;-53
2023/06/04 06:05:08;;;;;;;;;;;;;;;21.80;100.00;100071.91;5031424;28;840;-55
2023/06/04 06:07:35;;;;;;;;;;;;;;;21.99;100.00;100061.34;5031183;28;880;-53
2023/06/04 06:10:02;;;;;;;;;;;;;;;22.02;100.00;100064.00;5031410;28;912;-51
2023/06/04 06:12:29;;;;;;;;;;;;;;;22.09;100.00;100076.19;5032290;28;1248;-52
2023/06/04 06:14:56;;;;;;;;;;;;;;;22.24;100.00;100073.47;5035053;28;855;-53
2023/06/04 06:17:23;;;;;;;;;;;;;;;22.42;100.00;100076.97;5035014;28;875;-54
2023/06/04 06:19:51;;;;;;;;;;;;;;;22.51;100.00;100078.97;5034926;28;1971;-53
2023/06/04 06:22:18;;;;;;;;;;;;;;;22.52;100.00;100082.56;5035011;28;864;-53
2023/06/04 06:24:45;;;;;;;;;;;;;;;22.37;100.00;100088.88;5035440;28;821;-54
2023/06/04 06:27:12;;;;;;;;;;;;;;;22.23;100.00;100086.75;5034845;28;817;-53
2023/06/04 06:29:40;;;;;;;;;;;;;;;22.30;100.00;100077.22;5035268;28;903;-52
2023/06/04 06:32:06;;;;;;;;;;;;;;;22.44;100.00;100079.31;5035053;28;893;-52
2023/06/04 06:34:32;;;;;;;;;;;;;;;22.80;100.00;100078.28;5035099;28;852;-52
2023/06/04 06:37:00;;;;;;;;;;;;;;;22.99;100.00;100086.59;5034617;28;823;-54
2023/06/04 06:39:26;;;;;;;;;;;;;;;23.38;100.00;100073.28;5034591;28;1890;-53
2023/06/04 06:41:53;;;;;;;;;;;;;;;24.10;100.00;100077.84;5034565;28;878;-53
2023/06/04 06:44:19;;;;;;;;;;;;;;;24.90;100.00;100082.53;5034626;28;820;-53
2023/06/04 06:46:48;;;;;;;;;;;;;;;25.29;99.31;100099.22;5034503;28;835;-53
2023/06/04 06:49:15;;;;;;;;;;;;;;;24.98;99.02;100101.41;5034775;28;840;-52
2023/06/04 06:51:42;;;;;;;;;;;;;;;25.54;96.95;100089.19;5034887;28;871;-51
2023/06/04 06:54:08;;;;;;;;;;;;;;;25.82;95.38;100103.59;5034412;28;879;-54
2023/06/04 06:56:35;;;;;;;;;;;;;;;26.66;92.54;100109.91;5034308;28;812;-53
2023/06/04 06:59:02;;;;;;;;;;;;;;;27.57;90.14;100113.84;5034216;28;1921;-53
2023/06/04 07:01:28;;;;;;;;;;;;;;;28.33;80.42;100108.44;5034233;28;1030;-54
2023/06/04 07:03:55;;;;;;;;;;;;;;;28.45;73.13;100107.91;5034484;28;875;-54
2023/06/04 07:06:22;;;;;;;;;;;;;;;29.11;70.45;100118.84;5034164;28;832;-53
2023/06/04 07:08:49;;;;;;;;;;;;;;;27.71;72.89;100120.56;5034095;28;848;-54
2023/06/04 07:11:16;;;;;;;;;;;;;;;27.80;72.79;100119.53;5034054;28;1400;-54
2023/06/04 07:13:43;;;;;;;;;;;;;;;28.35;70.36;100125.75;5034171;28;855;-54
2023/06/04 07:16:09;;;;;;;;;;;;;;;27.97;70.06;100119.56;5034011;28;933;-55
2023/06/04 07:18:36;;;;;;;;;;;;;;;28.62;69.58;100121.34;5033879;28;1918;-54
2023/06/04 07:21:04;;;;;;;;;;;;;;;29.20;64.51;100110.00;5033864;28;922;-54
2023/06/04 07:23:30;;;;;;;;;;;;;;;29.13;65.22;100115.50;5032774;28;840;-54
2023/06/04 07:25:57;;;;;;;;;;;;;;;30.53;62.33;100119.34;5033770;28;911;-54
2023/06/04 07:28:23;;;;;;;;;;;;;;;30.58;58.37;100124.22;5033712;28;800;-52
2023/06/04 07:30:50;;;;;;;;;;;;;;;28.92;60.15;100127.94;5033753;28;832;-53
2023/06/04 07:33:16;;;;;;;;;;;;;;;27.38;65.25;100141.16;5033711;28;847;-53
2023/06/04 07:35:43;;;;;;;;;;;;;;;27.28;65.08;100137.78;5033565;28;796;-54
2023/06/04 07:38:09;;;;;;;;;;;;;;;27.65;63.98;100139.66;5033532;28;1949;-54
2023/06/04 07:40:36;;;;;;;;;;;;;;;27.61;63.29;100137.09;5033423;28;875;-54
2023/06/04 07:43:02;;;;;;;;;;;;;;;27.75;62.92;100138.13;5033458;28;884;-53
2023/06/04 07:45:30;;;;;;;;;;;;;;;27.30;63.37;100129.53;5033513;28;839;-53
2023/06/04 07:51:00;;;;;;;;;;;;;;;26.92;64.87;100133.75;5033396;28;678;-53
2023/06/04 07:53:27;;;;;;;;;;;;;;;27.17;64.90;100147.00;5033233;28;804;-54
2023/06/04 07:55:55;;;;;;;;;;;;;;;27.58;64.34;100151.53;5033457;28;899;-53
2023/06/04 07:58:22;;;;;;;;;;;;;;;27.80;63.48;100148.72;5033023;28;1893;-54
2023/06/04 08:00:49;;;;;;;;;;;;;;;27.51;62.45;100149.97;5033072;28;902;-53
2023/06/04 08:03:16;;;;;;;;;;;;;;;27.06;65.22;100153.41;5033099;28;844;-53
2023/06/04 08:05:42;;;;;;;;;;;;;;;27.40;64.86;100158.47;5033029;28;883;-53
2023/06/04 08:08:09;;;;;;;;;;;;;;;28.00;62.12;100164.78;5032908;28;860;-53
2023/06/04 08:10:36;;;;;;;;;;;;;;;27.78;62.17;100153.34;5032920;28;1327;-51
2023/06/04 08:13:03;;;;;;;;;;;;;;;27.21;62.74;100166.63;5032999;28;895;-53
2023/06/04 08:15:30;;;;;;;;;;;;;;;26.50;64.72;100161.59;5032822;28;860;-54
2023/06/04 08:17:57;;;;;;;;;;;;;;;26.41;64.36;100158.91;5032760;28;1934;-53
2023/06/04 08:20:25;;;;;;;;;;;;;;;25.99;64.97;100155.53;5032757;28;848;-52
2023/06/04 08:22:51;;;;;;;;;;;;;;;26.18;65.89;100155.94;5032676;28;861;-53
2023/06/04 08:25:18;;;;;;;;;;;;;;;26.99;63.30;100153.91;5032693;28;848;-53
2023/06/04 08:27:45;;;;;;;;;;;;;;;27.29;61.01;100150.69;5032563;28;856;-53
2023/06/04 08:30:12;;;;;;;;;;;;;;;27.07;58.35;100140.75;5032639;28;903;-54
2023/06/04 08:32:40;;;;;;;;;;;;;;;27.17;56.83;100151.91;5032466;28;987;-54
2023/06/04 08:35:06;;;;;;;;;;;;;;;27.14;54.63;100158.56;5032179;28;812;-53
2023/06/04 08:37:33;;;;;;;;;;;;;;;27.11;55.57;100148.25;5032396;28;879;-53
2023/06/04 08:40:00;;;;;;;;;;;;;;;27.53;54.48;100169.34;5032372;28;2010;-54
2023/06/04 08:42:30;;;;;;;;;;;;;;;27.97;52.73;100179.22;5032338;28;910;-55
2023/06/04 08:44:58;;;;;;;;;;;;;;;28.03;52.13;100169.41;5032299;28;895;-54
2023/06/04 08:47:26;;;;;;;;;;;;;;;27.88;53.06;100168.88;5032188;28;967;-54
2023/06/04 08:49:55;;;;;;;;;;;;;;;27.94;51.54;100166.84;5032391;28;863;-53
2023/06/04 08:52:23;;;;;;;;;;;;;;;27.75;51.08;100168.59;5032205;28;891;-54
2023/06/04 08:54:51;;;;;;;;;;;;;;;28.30;49.91;100170.72;5032129;28;880;-53
2023/06/04 08:57:20;;;;;;;;;;;;;;;28.86;48.13;100169.09;5032020;28;892;-53
2023/06/04 08:59:47;;;;;;;;;;;;;;;29.11;43.71;100165.16;5031938;28;1973;-53
2023/06/04 09:02:16;;;;;;;;;;;;;;;29.17;41.19;100167.19;5032223;28;832;-54
2023/06/04 09:04:44;;;;;;;;;;;;;;;29.09;41.70;100164.09;5032136;28;851;-53
2023/06/04 09:07:11;;;;;;;;;;;;;;;29.56;39.52;100171.91;5032173;28;820;-55
2023/06/04 09:09:39;;;;;;;;;;;;;;;29.68;40.11;100182.72;5032064;28;1041;-54
2023/06/04 09:12:10;;;;;;;;;;;;;;;29.62;38.25;100178.34;5031631;28;1211;-53
2023/06/04 09:14:37;;;;;;;;;;;;;;;29.53;38.64;100179.41;5031983;28;847;-54
2023/06/04 09:17:05;;;;;;;;;;;;;;;29.32;37.75;100184.72;5031693;28;883;-52
2023/06/04 09:19:31;;;;;;;;;;;;;;;28.99;37.00;100179.91;5031721;28;1973;-54
2023/06/04 09:22:02;;;;;;;;;;;;;;;28.43;38.73;100183.63;5031714;28;824;-54
2023/06/04 09:24:52;;;;;;;;;;;;;;;28.65;39.27;100175.06;5032030;28;891;-52
2023/06/04 09:27:22;;;;;;;;;;;;;;;28.45;39.58;100178.97;5031617;28;950;-53
2023/06/04 09:29:53;;;;;;;;;;;;;;;28.37;41.12;100180.78;5031602;28;836;-53
2023/06/04 09:32:26;;;;;;;;;;;;;;;28.21;41.56;100190.09;5031755;28;836;-54
2023/06/04 09:34:52;;;;;;;;;;;;;;;28.00;41.28;100186.72;5031737;28;879;-53
2023/06/04 09:37:21;;;;;;;;;;;;;;;27.98;42.82;100175.88;5031526;28;804;-54
2023/06/04 10:10:52;;;;;;;;;;;;;;;27.68;46.00;100178.41;5604325;22;1507;-56
2023/06/04 10:13:19;;;;;;;;;;;;;;;27.45;45.77;100163.38;5031188;28;898;-56
2023/06/04 10:15:49;;;;;;;;;;;;;;;27.59;45.63;100165.22;5031249;28;867;-57
2023/06/04 10:18:16;;;;;;;;;;;;;;;27.42;46.25;100165.16;5031086;28;1907;-54
2023/06/04 10:20:43;;;;;;;;;;;;;;;27.46;46.43;100162.06;5031238;28;822;-55
2023/06/04 10:23:11;;;;;;;;;;;;;;;27.86;45.69;100157.28;5031196;28;844;-55
2023/06/04 10:25:38;;;;;;;;;;;;;;;27.54;46.54;100162.34;5031058;28;949;-56
2023/06/04 10:28:05;;;;;;;;;;;;;;;27.61;46.15;100156.97;5031053;28;890;-55
2023/06/04 10:30:31;;;;;;;;;;;;;;;28.01;45.37;100157.78;5031103;28;1013;-56
2023/06/04 10:32:59;;;;;;;;;;;;;;;28.20;45.39;100146.69;5030998;28;820;-55
2023/06/04 10:35:32;;;;;;;;;;;;;;;28.05;44.46;100158.31;5030994;28;820;-56
2023/06/04 10:38:13;;;;;;;;;;;;;;;27.64;45.90;100170.13;5031087;28;1906;-55
2023/06/04 10:40:40;;;;;;;;;;;;;;;26.26;48.01;100168.34;5030989;28;876;-56
2023/06/04 10:43:07;;;;;;;;;;;;;;;25.84;49.45;100161.28;5031024;28;895;-57
2023/06/04 10:45:33;;;;;;;;;;;;;;;26.46;49.07;100163.88;5031192;28;922;-55
2023/06/04 10:48:04;;;;;;;;;;;;;;;27.22;47.69;100159.66;5030844;28;903;-54
2023/06/04 10:50:32;;;;;;;;;;;;;;;27.25;47.87;100161.50;5031345;28;812;-56
2023/06/04 10:53:02;;;;;;;;;;;;;;;27.11;47.22;100165.28;5031217;28;796;-56
2023/06/04 10:55:30;;;;;;;;;;;;;;;26.53;48.31;100157.72;5030882;28;863;-56
2023/06/04 10:57:57;;;;;;;;;;;;;;;26.04;48.89;100159.69;5032237;28;1890;-55
2023/06/04 11:00:41;;;;;;;;;;;;;;;25.82;49.87;100168.72;5034384;28;831;-56
2023/06/04 11:03:09;;;;;;;;;;;;;;;27.01;48.19;100151.31;5034474;28;839;-56
2023/06/04 11:05:42;;;;;;;;;;;;;;;27.71;46.83;100154.63;5034484;28;855;-56
2023/06/04 11:08:13;;;;;;;;;;;;;;;27.96;45.58;100146.44;5034304;28;871;-56
2023/06/04 11:10:44;;;;;;;;;;;;;;;26.78;47.49;100152.47;5033992;28;1223;-55
2023/06/04 11:13:11;;;;;;;;;;;;;;;26.51;48.30;100163.13;5034060;28;891;-56
2023/06/04 11:15:41;;;;;;;;;;;;;;;26.35;48.31;100160.94;5034048;28;866;-57
2023/06/04 11:18:08;;;;;;;;;;;;;;;26.25;48.82;100160.38;5032714;28;1993;-56
2023/06/04 11:20:35;;;;;;;;;;;;;;;26.53;48.72;100157.72;5032747;28;836;-56
2023/06/04 11:23:03;;;;;;;;;;;;;;;26.64;47.96;100157.81;5034075;28;835;-55
2023/06/04 11:25:33;;;;;;;;;;;;;;;26.59;48.27;100166.31;5033781;28;919;-55
2023/06/04 11:28:01;;;;;;;;;;;;;;;26.51;48.27;100156.69;5034363;28;788;-56
2023/06/04 11:30:28;;;;;;;;;;;;;;;26.41;48.48;100162.53;5033817;28;828;-56
2023/06/04 11:33:04;;;;;;;;;;;;;;;26.55;47.41;100166.50;5033669;28;843;-56
2023/06/04 11:35:39;;;;;;;;;;;;;;;26.66;47.96;100158.09;5033658;28;929;-56
2023/06/04 11:38:06;;;;;;;;;;;;;;;26.17;47.96;100168.53;5033458;28;1886;-56
2023/06/04 11:40:33;;;;;;;;;;;;;;;26.06;48.70;100163.56;5033464;28;828;-56
2023/06/04 11:42:59;;;;;;;;;;;;;;;26.02;48.24;100165.06;5033492;28;832;-55
2023/06/04 11:45:29;;;;;;;;;;;;;;;26.18;47.34;100155.94;5033563;28;871;-56
2023/06/04 11:47:56;;;;;;;;;;;;;;;27.32;46.04;100157.41;5033642;28;871;-56
2023/06/04 11:50:23;;;;;;;;;;;;;;;28.24;43.71;100150.03;5033691;28;824;-56
2023/06/04 11:52:52;;;;;;;;;;;;;;;28.13;43.26;100152.91;5033578;28;899;-57
2023/06/04 11:55:22;;;;;;;;;;;;;;;28.14;43.57;100154.44;5033210;28;895;-56
2023/06/04 11:57:49;;;;;;;;;;;;;;;29.05;42.18;100150.13;5033610;28;887;-56
2023/06/04 12:00:17;;;;;;;;;;;;;;;28.66;42.86;100153.13;5033138;28;1947;-57
2023/06/04 12:02:52;;;;;;;;;;;;;;;27.87;43.71;100159.59;5033195;28;882;-57
2023/06/04 12:05:20;;;;;;;;;;;;;;;27.37;44.50;100157.41;5033116;28;871;-56
2023/06/04 12:07:56;;;;;;;;;;;;;;;27.19;44.79;100152.94;5033298;28;803;-57
2023/06/04 12:10:24;;;;;;;;;;;;;;;27.74;44.02;100150.78;5032356;28;1367;-57
2023/06/04 12:12:56;;;;;;;;;;;;;;;28.90;42.58;100144.75;5033007;28;918;-56
2023/06/04 12:15:23;;;;;;;;;;;;;;;29.51;42.05;100137.25;5033018;28;846;-57
2023/06/04 12:17:50;;;;;;;;;;;;;;;28.98;42.09;100142.16;5032846;28;811;-57
2023/06/04 12:20:17;;;;;;;;;;;;;;;28.36;43.52;100150.03;5032762;28;1910;-57
2023/06/04 12:22:47;;;;;;;;;;;;;;;27.74;43.28;100152.84;5032829;28;886;-57
2023/06/04 12:25:24;;;;;;;;;;;;;;;27.25;44.45;100156.59;5032793;28;839;-56
2023/06/04 12:27:51;;;;;;;;;;;;;;;26.85;46.23;100154.84;5032781;28;792;-56
2023/06/04 12:30:18;;;;;;;;;;;;;;;26.61;46.57;100158.06;5032858;28;835;-55
2023/06/04 12:32:45;;;;;;;;;;;;;;;26.08;47.58;100149.66;5032775;28;922;-56
2023/06/04 12:35:11;;;;;;;;;;;;;;;25.75;48.56;100155.00;5032808;28;835;-56
2023/06/04 12:37:38;;;;;;;;;;;;;;;25.71;49.09;100158.06;5032693;28;930;-56
2023/06/04 12:40:06;;;;;;;;;;;;;;;25.84;49.01;100154.84;5032674;28;1890;-57
2023/06/04 12:42:33;;;;;;;;;;;;;;;25.90;48.97;100160.56;5032633;28;894;-56
2023/06/04 12:44:59;;;;;;;;;;;;;;;25.92;48.97;100170.09;5032531;28;863;-56
2023/06/04 12:47:25;;;;;;;;;;;;;;;25.87;49.81;100176.47;5032638;28;804;-56
2023/06/04 12:49:52;;;;;;;;;;;;;;;25.77;51.58;100178.69;5032572;28;886;-56
2023/06/04 12:52:19;;;;;;;;;;;;;;;25.52;54.19;100177.41;5032796;28;836;-56
2023/06/04 12:54:45;;;;;;;;;;;;;;;25.34;55.98;100178.50;5032575;28;820;-57
2023/06/04 12:57:12;;;;;;;;;;;;;;;25.16;57.35;100175.94;5032431;28;843;-56
2023/06/04 12:59:39;;;;;;;;;;;;;;;24.83;59.74;100179.84;5032057;28;1890;-56
2023/06/04 13:02:06;;;;;;;;;;;;;;;24.73;60.38;100178.44;5031962;28;907;-57
2023/06/04 13:04:32;;;;;;;;;;;;;;;24.77;61.25;100182.63;5032048;28;820;-57
2023/06/04 13:06:59;;;;;;;;;;;;;;;24.72;61.57;100182.53;5030595;28;1496;-57
2023/06/04 13:09:28;;;;;;;;;;;;;;;24.53;62.56;100184.81;5031837;28;1002;-57
2023/06/04 13:11:54;;;;;;;;;;;;;;;24.35;63.21;100178.09;5031703;28;1432;-55
2023/06/04 13:14:21;;;;;;;;;;;;;;;24.17;64.16;100181.13;5032004;28;836;-56
2023/06/04 13:16:48;;;;;;;;;;;;;;;24.00;65.75;100183.66;5031873;28;820;-57
2023/06/04 13:19:15;;;;;;;;;;;;;;;23.67;66.87;100193.06;5031618;28;1971;-56
2023/06/04 13:21:42;;;;;;;;;;;;;;;23.41;68.54;100199.25;5030897;28;870;-57
2023/06/04 13:24:10;;;;;;;;;;;;;;;23.08;70.87;100196.50;5031710;28;832;-54
2023/06/04 13:26:38;;;;;;;;;;;;;;;22.86;72.09;100196.75;5032363;28;824;-55
2023/06/04 13:29:05;;;;;;;;;;;;;;;22.66;73.63;100199.34;5031941;28;836;-56
2023/06/04 13:31:32;;;;;;;;;;;;;;;22.41;75.67;100204.16;5031941;28;867;-56
2023/06/04 13:33:59;;;;;;;;;;;;;;;22.27;76.67;100210.47;5031818;28;812;-56
2023/06/04 13:36:26;;;;;;;;;;;;;;;22.14;77.61;100191.69;5031644;28;906;-54